createdAt,value
2023-05-19T00:02:25.956Z,73.00
2023-05-19T00:04:53.210Z,72.70
2023-05-19T00:07:23.159Z,73.20
2023-05-19T00:09:50.780Z,73.00
2023-05-19T00:12:17.847Z,73.30
2023-05-19T00:14:44.786Z,73.70
2023-05-19T00:17:11.790Z,73.70
2023-05-19T00:19:39.454Z,74.60
2023-05-19T00:22:06.292Z,74.70
2023-05-19T00:24:33.315Z,74.90
2023-05-19T00:26:59.993Z,74.50
2023-05-19T00:29:26.640Z,74.50
2023-05-19T00:31:53.416Z,74.80
2023-05-19T00:34:20.287Z,75.00
2023-05-19T00:36:47.030Z,74.80
2023-05-19T00:39:13.767Z,74.70
2023-05-19T00:41:40.561Z,74.50
2023-05-19T00:44:07.599Z,74.20
2023-05-19T00:46:34.548Z,74.30
2023-05-19T00:49:01.274Z,74.50
2023-05-19T00:51:29.548Z,75.00
2023-05-19T00:53:56.575Z,75.10
2023-05-19T00:56:23.465Z,75.30
2023-05-19T00:58:51.757Z,76.00
2023-05-19T01:01:18.941Z,76.90
2023-05-19T01:03:47.043Z,77.90
2023-05-19T01:06:15.005Z,78.40
2023-05-19T01:08:41.766Z,78.80
2023-05-19T01:11:08.938Z,79.70
2023-05-19T01:13:36.667Z,79.80
2023-05-19T01:16:03.534Z,80.30
2023-05-19T01:18:39.103Z,80.60
2023-05-19T01:21:23.594Z,80.70
2023-05-19T01:24:23.291Z,80.80
2023-05-19T01:27:11.489Z,80.90
2023-05-19T01:30:06.133Z,81.00
2023-05-19T01:32:34.684Z,80.90
2023-05-19T01:35:03.093Z,80.90
2023-05-19T01:37:30.279Z,80.60
2023-05-19T01:39:57.472Z,80.30
2023-05-19T01:42:26.228Z,80.30
2023-05-19T01:44:54.608Z,80.70
2023-05-19T01:47:22.265Z,80.50
2023-05-19T01:49:48.983Z,80.40
2023-05-19T01:52:15.876Z,80.80
2023-05-19T01:54:42.601Z,81.10
2023-05-19T01:57:15.287Z,80.70
2023-05-19T02:00:23.365Z,81.20
2023-05-19T02:03:06.065Z,81.60
2023-05-19T02:05:52.938Z,81.70
2023-05-19T02:08:44.219Z,81.90
2023-05-19T02:11:19.705Z,81.80
2023-05-19T02:13:50.065Z,82.10
2023-05-19T02:16:17.673Z,81.70
2023-05-19T02:18:46.188Z,81.40
2023-05-19T02:21:13.480Z,82.00
2023-05-19T02:23:41.882Z,82.20
2023-05-19T02:26:08.723Z,82.50
2023-05-19T02:28:36.584Z,82.50
2023-05-19T02:31:05.176Z,82.20
2023-05-19T02:33:32.350Z,82.30
2023-05-19T02:35:59.077Z,82.20
2023-05-19T02:38:26.346Z,82.20
2023-05-19T02:40:53.371Z,82.20
2023-05-19T02:43:20.146Z,82.50
2023-05-19T02:45:46.849Z,82.60
2023-05-19T02:48:13.577Z,82.70
2023-05-19T02:50:40.394Z,82.40
2023-05-19T02:53:07.048Z,82.40
2023-05-19T02:55:33.714Z,82.20
2023-05-19T02:58:00.428Z,82.30
2023-05-19T03:00:27.114Z,82.50
2023-05-19T03:02:54.098Z,82.60
2023-05-19T03:05:20.901Z,82.60
2023-05-19T03:07:47.578Z,82.50
2023-05-19T03:10:14.251Z,82.10
2023-05-19T03:12:41.041Z,82.30
2023-05-19T03:15:08.518Z,82.50
2023-05-19T03:17:36.489Z,83.10
2023-05-19T03:20:05.205Z,83.50
2023-05-19T03:22:32.263Z,83.30
2023-05-19T03:24:58.984Z,83.40
2023-05-19T03:27:25.799Z,83.90
2023-05-19T03:29:53.810Z,84.30
2023-05-19T03:32:20.498Z,84.50
2023-05-19T03:34:47.185Z,84.90
2023-05-19T03:37:14.052Z,84.60
2023-05-19T03:39:40.832Z,85.10
2023-05-19T03:42:07.533Z,85.70
2023-05-19T03:44:34.342Z,85.80
2023-05-19T03:47:01.086Z,85.70
2023-05-19T03:49:27.746Z,85.40
2023-05-19T03:51:54.433Z,84.80
2023-05-19T03:54:22.435Z,85.00
2023-05-19T03:56:49.423Z,85.10
2023-05-19T03:59:16.224Z,85.70
2023-05-19T04:01:42.923Z,86.10
2023-05-19T04:04:09.649Z,86.70
2023-05-19T04:06:37.661Z,88.20
2023-05-19T04:09:12.899Z,87.50
2023-05-19T04:11:40.378Z,87.00
2023-05-19T04:14:07.735Z,86.50
2023-05-19T04:16:35.123Z,87.00
2023-05-19T04:19:02.044Z,88.20
2023-05-19T04:21:28.784Z,87.80
2023-05-19T04:23:55.490Z,86.90
2023-05-19T04:26:22.666Z,87.10
2023-05-19T04:28:49.401Z,87.10
2023-05-19T04:31:16.127Z,87.00
2023-05-19T04:33:42.891Z,87.60
2023-05-19T04:36:11.449Z,88.00
2023-05-19T04:38:40.323Z,88.40
2023-05-19T04:41:10.675Z,88.60
2023-05-19T04:43:41.861Z,87.90
2023-05-19T04:46:13.247Z,88.00
2023-05-19T04:48:41.154Z,89.90
2023-05-19T04:51:08.041Z,89.10
2023-05-19T04:53:34.995Z,89.20
2023-05-19T04:56:02.371Z,88.60
2023-05-19T04:58:29.223Z,88.90
2023-05-19T05:00:56.022Z,89.10
2023-05-19T05:03:26.543Z,89.60
2023-05-19T05:05:53.429Z,89.50
2023-05-19T05:08:23.257Z,89.20
2023-05-19T05:10:53.528Z,88.90
2023-05-19T05:13:23.037Z,89.80
2023-05-19T05:15:52.119Z,88.90
2023-05-19T05:18:19.519Z,88.10
2023-05-19T05:20:46.891Z,88.20
2023-05-19T05:23:16.935Z,87.60
2023-05-19T05:25:44.542Z,88.30
2023-05-19T05:28:11.389Z,88.30
2023-05-19T05:30:38.362Z,88.10
2023-05-19T05:33:06.372Z,88.40
2023-05-19T05:35:33.401Z,88.20
2023-05-19T05:38:01.669Z,88.00
2023-05-19T05:40:28.585Z,86.90
2023-05-19T05:42:55.854Z,87.00
2023-05-19T05:45:23.375Z,86.90
2023-05-19T05:47:50.934Z,87.10
2023-05-19T05:50:18.621Z,87.00
2023-05-19T05:52:47.327Z,85.70
2023-05-19T05:55:15.394Z,85.50
2023-05-19T05:57:42.075Z,85.40
2023-05-19T06:00:15.872Z,84.50
2023-05-19T06:02:47.371Z,84.10
2023-05-19T06:05:14.359Z,83.50
2023-05-19T06:07:41.592Z,81.90
2023-05-19T06:10:09.869Z,82.30
2023-05-19T06:12:40.589Z,82.60
2023-05-19T06:15:08.076Z,81.70
2023-05-19T06:17:38.113Z,82.10
2023-05-19T06:20:10.220Z,82.80
2023-05-19T06:22:37.297Z,80.80
2023-05-19T06:25:04.609Z,81.30
2023-05-19T06:27:33.317Z,81.00
2023-05-19T06:30:01.570Z,79.60
2023-05-19T06:32:29.792Z,79.60
2023-05-19T06:34:56.541Z,79.40
2023-05-19T06:37:23.771Z,79.30
2023-05-19T06:39:56.432Z,80.40
2023-05-19T06:42:24.115Z,81.00
2023-05-19T06:44:51.808Z,80.80
2023-05-19T06:47:18.964Z,80.10
2023-05-19T06:49:45.960Z,81.20
2023-05-19T06:52:12.790Z,81.90
2023-05-19T06:54:39.564Z,80.60
2023-05-19T06:57:09.418Z,80.60
2023-05-19T06:59:37.535Z,80.60
2023-05-19T07:02:04.825Z,80.50
2023-05-19T07:04:31.550Z,80.80
2023-05-19T07:06:58.711Z,81.20
2023-05-19T07:09:25.657Z,81.30
2023-05-19T07:11:52.434Z,80.70
2023-05-19T07:14:20.822Z,81.00
2023-05-19T07:16:47.728Z,80.80
2023-05-19T07:19:14.679Z,81.30
2023-05-19T07:21:42.371Z,81.30
2023-05-19T07:24:09.087Z,82.20
2023-05-19T07:26:35.769Z,82.00
2023-05-19T07:29:02.507Z,81.80
2023-05-19T07:31:29.291Z,81.00
2023-05-19T07:33:56.680Z,81.30
2023-05-19T07:36:23.361Z,81.30
2023-05-19T07:38:50.265Z,80.80
2023-05-19T07:41:17.055Z,80.30
2023-05-19T07:43:43.737Z,80.40
2023-05-19T07:46:10.598Z,80.80
2023-05-19T07:48:37.337Z,80.90
2023-05-19T07:51:04.181Z,82.30
2023-05-19T07:53:30.963Z,82.00
2023-05-19T07:55:58.766Z,81.60
2023-05-19T07:58:26.722Z,82.20
2023-05-19T08:00:53.554Z,81.90
2023-05-19T08:03:20.944Z,81.50
2023-05-19T08:05:48.059Z,81.20
2023-05-19T08:08:16.669Z,81.20
2023-05-19T08:10:43.809Z,81.20
2023-05-19T08:13:10.630Z,81.00
2023-05-19T08:15:37.613Z,80.60
2023-05-19T08:18:05.359Z,81.60
2023-05-19T08:20:32.885Z,81.50
2023-05-19T08:22:59.957Z,80.20
2023-05-19T08:25:26.636Z,80.20
2023-05-19T08:27:53.399Z,80.10
2023-05-19T08:30:20.296Z,80.10
2023-05-19T08:32:48.524Z,79.80
2023-05-19T08:35:15.618Z,79.30
2023-05-19T08:37:42.848Z,80.80
2023-05-19T08:40:16.702Z,80.60
2023-05-19T08:42:44.695Z,80.20
2023-05-19T08:45:11.841Z,79.50
2023-05-19T08:47:39.766Z,79.60
2023-05-19T08:50:08.024Z,79.80
2023-05-19T08:52:55.808Z,81.00
2023-05-19T08:55:41.876Z,79.40
2023-05-19T08:58:09.658Z,80.30
2023-05-19T09:00:37.066Z,81.30
2023-05-19T09:03:17.638Z,79.70
2023-05-19T09:05:46.568Z,79.40
2023-05-19T09:08:13.710Z,79.50
2023-05-19T09:10:40.887Z,80.00
2023-05-19T09:13:07.696Z,79.80
2023-05-19T09:15:36.764Z,80.40
2023-05-19T09:18:08.964Z,80.50
2023-05-19T09:20:43.858Z,79.80
2023-05-19T09:23:16.166Z,79.20
2023-05-19T09:25:53.109Z,79.40
2023-05-19T09:28:28.033Z,79.60
2023-05-19T09:31:03.477Z,81.30
2023-05-19T09:33:32.435Z,80.30
2023-05-19T09:36:02.638Z,80.10
2023-05-19T09:38:29.671Z,79.50
2023-05-19T09:40:58.381Z,79.10
2023-05-19T09:43:28.603Z,80.20
2023-05-19T09:46:06.325Z,79.70
2023-05-19T09:48:34.607Z,80.10
2023-05-19T09:51:05.236Z,80.20
2023-05-19T09:53:32.636Z,81.60
2023-05-19T09:56:01.924Z,81.80
2023-05-19T09:58:34.802Z,79.90
2023-05-19T10:01:02.814Z,80.40
2023-05-19T10:03:30.937Z,79.80
2023-05-19T10:05:58.153Z,79.90
2023-05-19T10:08:27.246Z,79.50
2023-05-19T10:10:54.397Z,79.90
2023-05-19T10:13:22.185Z,81.30
2023-05-19T10:18:20.846Z,79.60
2023-05-19T10:20:49.025Z,78.50
2023-05-19T10:23:16.279Z,78.30
2023-05-19T10:25:43.830Z,79.40
2023-05-19T10:28:17.171Z,80.20
2023-05-19T10:30:47.540Z,79.70
2023-05-19T10:33:18.160Z,79.60
2023-05-19T10:36:08.305Z,79.00
2023-05-19T10:38:53.138Z,78.00
2023-05-19T10:41:22.975Z,78.60
2023-05-19T10:43:54.497Z,79.20
2023-05-19T10:46:27.118Z,79.50
2023-05-19T10:48:54.524Z,78.20
2023-05-19T10:51:21.363Z,78.00
2023-05-19T10:53:49.963Z,77.30
2023-05-19T10:56:34.718Z,77.60
2023-05-19T10:59:02.453Z,77.30
2023-05-19T11:01:37.234Z,77.40
2023-05-19T11:04:12.066Z,76.30
2023-05-19T11:06:41.799Z,76.70
2023-05-19T11:09:17.934Z,75.60
2023-05-19T11:11:49.986Z,76.80
2023-05-19T11:14:26.853Z,77.10
2023-05-19T11:16:57.318Z,76.20
2023-05-19T11:19:28.134Z,76.50
2023-05-19T11:21:55.805Z,76.00
2023-05-19T11:24:45.778Z,75.60
2023-05-19T11:27:25.216Z,76.60
2023-05-19T11:29:53.018Z,76.80
2023-05-19T11:32:26.239Z,76.80
2023-05-19T11:34:55.108Z,76.40
2023-05-19T11:37:22.050Z,76.20
2023-05-19T11:39:49.471Z,75.70
2023-05-19T11:42:16.772Z,75.90
2023-05-19T11:44:46.260Z,75.30
2023-05-19T11:47:17.298Z,75.60
2023-05-19T11:49:55.115Z,75.50
2023-05-19T11:52:23.223Z,76.20
2023-05-19T11:54:50.634Z,76.00
2023-05-19T11:57:17.859Z,76.50
2023-05-19T11:59:45.887Z,77.10
2023-05-19T12:02:26.129Z,76.10
2023-05-19T12:04:53.453Z,75.70
2023-05-19T12:07:24.488Z,75.90
2023-05-19T12:09:52.069Z,75.80
2023-05-19T12:12:20.795Z,76.10
2023-05-19T12:14:50.212Z,75.30
2023-05-19T12:17:19.797Z,76.40
2023-05-19T12:19:48.590Z,76.40
2023-05-19T12:22:16.586Z,76.70
2023-05-19T12:24:44.961Z,76.10
2023-05-19T12:27:22.779Z,75.50
2023-05-19T12:29:53.638Z,76.30
2023-05-19T12:32:25.545Z,76.60
2023-05-19T12:34:53.850Z,76.70
2023-05-19T12:37:21.121Z,76.80
2023-05-19T12:39:49.332Z,77.40
2023-05-19T12:42:16.558Z,77.40
2023-05-19T12:44:52.730Z,77.40
2023-05-19T12:47:21.054Z,76.50
2023-05-19T12:49:56.046Z,76.60
2023-05-19T12:52:23.584Z,75.70
2023-05-19T12:55:07.129Z,75.40
2023-05-19T12:57:38.946Z,76.00
2023-05-19T13:00:25.615Z,75.70
2023-05-19T13:03:05.041Z,76.00
2023-05-19T13:05:40.051Z,77.00
2023-05-19T13:08:11.352Z,77.10
2023-05-19T13:10:39.768Z,76.40
2023-05-19T13:13:07.690Z,76.80
2023-05-19T13:15:37.580Z,76.30
2023-05-19T13:18:06.281Z,76.40
2023-05-19T13:20:34.073Z,77.10
2023-05-19T13:23:01.080Z,76.40
2023-05-19T13:25:28.237Z,77.00
2023-05-19T13:27:55.185Z,75.90
2023-05-19T13:30:22.666Z,76.80
2023-05-19T13:32:49.561Z,75.70
2023-05-19T13:35:16.524Z,76.40
2023-05-19T13:37:43.430Z,76.20
2023-05-19T13:40:10.972Z,76.70
2023-05-19T13:42:38.023Z,76.10
2023-05-19T13:45:05.533Z,75.50
2023-05-19T13:47:32.515Z,75.50
2023-05-19T13:49:59.480Z,75.20
2023-05-19T13:52:27.519Z,75.70
2023-05-19T13:54:56.520Z,76.10
2023-05-19T13:57:26.466Z,75.90
2023-05-19T14:00:02.538Z,76.00
2023-05-19T14:02:30.711Z,76.20
2023-05-19T14:04:57.778Z,76.40
2023-05-19T14:07:25.743Z,76.70
2023-05-19T14:09:52.760Z,75.80
2023-05-19T14:12:23.225Z,76.10
2023-05-19T14:14:52.207Z,75.70
2023-05-19T14:17:18.965Z,76.00
2023-05-19T14:19:45.719Z,76.00
2023-05-19T14:22:13.437Z,75.10
2023-05-19T14:24:41.473Z,75.00
2023-05-19T14:27:08.195Z,75.10
2023-05-19T14:29:35.316Z,74.60
2023-05-19T14:32:03.199Z,75.20
2023-05-19T14:34:30.347Z,74.80
2023-05-19T14:36:57.237Z,75.40
2023-05-19T14:39:23.943Z,75.70
2023-05-19T14:41:51.864Z,76.10
2023-05-19T14:44:18.755Z,75.90
2023-05-19T14:46:45.605Z,75.80
2023-05-19T14:49:12.421Z,76.80
2023-05-19T14:51:39.089Z,76.30
2023-05-19T14:54:05.768Z,76.60
2023-05-19T14:56:32.661Z,76.20
2023-05-19T14:58:59.427Z,76.30
2023-05-19T15:01:26.310Z,76.60
2023-05-19T15:03:53.193Z,76.60
2023-05-19T15:06:20.004Z,76.80
2023-05-19T15:08:46.814Z,76.50
2023-05-19T15:11:13.569Z,76.40
2023-05-19T15:13:40.466Z,77.30
2023-05-19T15:16:17.594Z,77.30
2023-05-19T15:18:45.322Z,76.90
2023-05-19T15:21:12.464Z,76.00
2023-05-19T15:23:39.256Z,75.80
2023-05-19T15:26:06.743Z,76.80
2023-05-19T15:28:34.240Z,76.20
2023-05-19T15:31:01.067Z,76.10
2023-05-19T15:33:27.877Z,76.30
2023-05-19T15:35:54.540Z,77.40
2023-05-19T15:38:21.424Z,76.80
2023-05-19T15:40:48.185Z,76.60
2023-05-19T15:43:15.161Z,75.70
2023-05-19T15:45:42.014Z,76.10
2023-05-19T15:48:08.820Z,77.70
2023-05-19T15:50:36.150Z,75.80
2023-05-19T15:53:03.370Z,76.40
2023-05-19T15:55:30.402Z,77.00
2023-05-19T15:57:57.292Z,76.90
2023-05-19T16:00:24.208Z,77.00
2023-05-19T16:02:51.200Z,76.70
2023-05-19T16:05:18.197Z,76.90
2023-05-19T16:07:45.136Z,77.50
2023-05-19T16:10:11.972Z,78.00
2023-05-19T16:12:38.750Z,76.20
2023-05-19T16:15:06.014Z,76.00
2023-05-19T16:17:32.933Z,75.80
2023-05-19T16:19:59.662Z,75.70
2023-05-19T16:22:27.126Z,75.70
2023-05-19T16:24:54.278Z,76.40
2023-05-19T16:27:21.101Z,76.20
2023-05-19T16:29:50.941Z,76.30
2023-05-19T16:32:17.692Z,77.40
2023-05-19T16:34:44.487Z,76.20
2023-05-19T16:37:11.244Z,76.70
2023-05-19T16:39:38.088Z,76.10
2023-05-19T16:42:05.145Z,76.10
2023-05-19T16:44:31.833Z,76.40
2023-05-19T16:46:58.590Z,75.70
2023-05-19T16:49:25.348Z,76.10
2023-05-19T16:51:53.142Z,76.70
2023-05-19T16:54:21.027Z,77.30
2023-05-19T16:56:47.936Z,76.00
2023-05-19T16:59:21.240Z,75.50
2023-05-19T17:01:48.030Z,75.70
2023-05-19T17:04:15.260Z,75.40
2023-05-19T17:06:41.943Z,76.50
2023-05-19T17:09:08.674Z,77.00
2023-05-19T17:11:35.409Z,77.30
2023-05-19T17:14:04.159Z,77.10
2023-05-19T17:16:30.924Z,77.70
2023-05-19T17:18:57.639Z,77.20
2023-05-19T17:21:24.373Z,77.30
2023-05-19T17:23:51.253Z,76.00
2023-05-19T17:26:17.941Z,75.70
2023-05-19T17:28:44.707Z,76.20
2023-05-19T17:31:15.753Z,77.10
2023-05-19T17:33:42.487Z,77.40
2023-05-19T17:36:09.459Z,76.70
2023-05-19T17:38:40.180Z,76.10
2023-05-19T17:41:10.994Z,76.40
2023-05-19T17:43:39.336Z,76.90
2023-05-19T17:46:06.473Z,77.90
2023-05-19T17:48:33.636Z,78.50
2023-05-19T17:51:00.473Z,78.50
2023-05-19T17:53:27.897Z,78.70
2023-05-19T17:56:02.321Z,78.90
2023-05-19T17:58:29.673Z,79.20
2023-05-19T18:00:56.728Z,79.10
2023-05-19T18:03:24.071Z,78.70
2023-05-19T18:05:51.466Z,79.40
2023-05-19T18:08:18.701Z,80.20
2023-05-19T18:10:51.216Z,80.40
2023-05-19T18:13:18.062Z,80.20
2023-05-19T18:15:44.773Z,80.00
2023-05-19T18:18:11.674Z,79.60
2023-05-19T18:20:40.873Z,79.00
2023-05-19T18:23:07.609Z,79.60
2023-05-19T18:25:35.888Z,80.00
2023-05-19T18:28:02.766Z,80.10
2023-05-19T18:30:29.730Z,79.70
2023-05-19T18:32:56.721Z,79.70
2023-05-19T18:35:23.413Z,79.70
2023-05-19T18:37:50.688Z,80.00
2023-05-19T18:40:17.524Z,80.30
2023-05-19T18:42:44.234Z,80.80
2023-05-19T18:45:11.416Z,80.80
2023-05-19T18:47:38.109Z,81.30
2023-05-19T18:50:05.306Z,81.80
2023-05-19T18:52:32.276Z,82.20
2023-05-19T18:55:00.704Z,82.10
2023-05-19T18:57:27.415Z,82.00
2023-05-19T18:59:54.155Z,82.00
2023-05-19T19:02:20.961Z,81.60
2023-05-19T19:04:51.050Z,81.70
2023-05-19T19:07:17.941Z,82.00
2023-05-19T19:09:44.875Z,82.00
2023-05-19T19:12:11.824Z,82.40
2023-05-19T19:14:38.989Z,82.60
2023-05-19T19:17:06.131Z,83.00
2023-05-19T19:19:33.157Z,83.20
2023-05-19T19:22:00.000Z,83.30
2023-05-19T19:24:28.473Z,83.10
2023-05-19T19:26:55.254Z,82.70
2023-05-19T19:29:22.257Z,83.10
2023-05-19T19:31:49.219Z,83.40
2023-05-19T19:34:17.690Z,83.70
2023-05-19T19:36:44.846Z,84.00
2023-05-19T19:39:11.967Z,84.30
2023-05-19T19:41:40.966Z,84.90
2023-05-19T19:44:07.825Z,84.90
2023-05-19T19:46:34.886Z,84.70
2023-05-19T19:49:01.881Z,84.50
2023-05-19T19:51:28.934Z,84.50
2023-05-19T19:53:55.647Z,84.80
2023-05-19T19:56:24.526Z,84.80
2023-05-19T19:58:51.407Z,84.60
2023-05-19T20:01:20.491Z,84.60
2023-05-19T20:03:47.984Z,84.90
2023-05-19T20:06:15.264Z,85.00
2023-05-19T20:08:42.420Z,85.10
2023-05-19T20:11:09.282Z,84.90
2023-05-19T20:13:36.473Z,84.40
2023-05-19T20:16:03.361Z,84.20
2023-05-19T20:18:30.248Z,84.60
2023-05-19T20:20:57.258Z,84.50
2023-05-19T20:23:24.006Z,84.10
2023-05-19T20:26:09.941Z,84.80
2023-05-19T20:28:37.653Z,84.60
2023-05-19T20:31:06.269Z,84.90
2023-05-19T20:33:33.149Z,84.90
2023-05-19T20:36:00.069Z,85.10
2023-05-19T20:38:26.844Z,85.40
2023-05-19T20:40:54.700Z,85.40
2023-05-19T20:43:21.564Z,85.40
2023-05-19T20:45:48.493Z,85.20
2023-05-19T20:48:18.147Z,85.60
2023-05-19T20:50:45.049Z,85.90
2023-05-19T20:53:11.829Z,86.20
2023-05-19T20:55:39.053Z,86.20
2023-05-19T20:58:06.059Z,86.30
2023-05-19T21:00:33.174Z,86.60
2023-05-19T21:03:00.740Z,86.80
2023-05-19T21:05:27.601Z,86.80
2023-05-19T21:07:54.439Z,87.10
2023-05-19T21:10:21.474Z,88.90
2023-05-19T21:12:48.236Z,89.70
2023-05-19T21:15:15.071Z,89.60
2023-05-19T21:17:41.888Z,89.40
2023-05-19T21:20:09.488Z,90.00
2023-05-19T21:22:36.332Z,90.10
2023-05-19T21:25:03.684Z,90.20
2023-05-19T21:27:32.855Z,89.80
2023-05-19T21:30:00.033Z,90.10
2023-05-19T21:32:29.534Z,90.40
2023-05-19T21:34:56.414Z,90.50
2023-05-19T21:37:23.327Z,90.30
2023-05-19T21:39:50.099Z,90.30
2023-05-19T21:42:16.905Z,90.60
2023-05-19T21:44:43.595Z,90.60
2023-05-19T21:47:10.401Z,91.00
2023-05-19T21:49:38.366Z,91.00
2023-05-19T21:52:06.218Z,91.10
2023-05-19T21:54:33.024Z,91.10
2023-05-19T21:56:59.864Z,91.50
2023-05-19T21:59:26.671Z,91.50
2023-05-19T22:01:53.569Z,91.70
2023-05-19T22:04:21.496Z,91.70
2023-05-19T22:06:48.528Z,91.80
2023-05-19T22:09:15.356Z,91.60
2023-05-19T22:11:42.179Z,91.90
2023-05-19T22:14:08.899Z,91.80
2023-05-19T22:16:35.673Z,92.40
2023-05-19T22:19:02.539Z,92.50
2023-05-19T22:21:29.431Z,92.20
2023-05-19T22:23:56.220Z,92.20
2023-05-19T22:26:23.033Z,92.30
2023-05-19T22:28:50.394Z,92.10
2023-05-19T22:31:17.665Z,92.30
2023-05-19T22:33:44.622Z,92.20
2023-05-19T22:36:11.444Z,92.40
2023-05-19T22:38:38.153Z,92.60
2023-05-19T22:41:05.311Z,92.80
2023-05-19T22:43:32.164Z,92.60
2023-05-19T22:45:58.968Z,92.90
2023-05-19T22:48:25.712Z,92.60
2023-05-19T22:50:52.589Z,92.60
2023-05-19T22:53:19.376Z,92.80
2023-05-19T22:55:46.232Z,92.80
2023-05-19T22:58:13.045Z,92.80
2023-05-19T23:00:40.201Z,92.60
2023-05-19T23:03:07.127Z,92.70
2023-05-19T23:05:34.398Z,92.70
2023-05-19T23:08:01.548Z,92.90
2023-05-19T23:10:28.364Z,93.10
2023-05-19T23:12:55.191Z,93.10
2023-05-19T23:15:21.964Z,93.00
2023-05-19T23:17:48.801Z,93.10
2023-05-19T23:20:15.740Z,93.20
2023-05-19T23:22:42.444Z,93.50
2023-05-19T23:25:11.719Z,93.90
2023-05-19T23:27:38.384Z,93.80
2023-05-19T23:30:05.823Z,94.00
2023-05-19T23:32:32.616Z,94.00
2023-05-19T23:35:16.785Z,94.60
2023-05-19T23:37:43.571Z,94.90
2023-05-19T23:40:10.618Z,94.90
2023-05-19T23:42:37.543Z,94.80
2023-05-19T23:45:05.003Z,94.60
2023-05-19T23:47:31.766Z,94.60
2023-05-19T23:49:58.556Z,94.20
2023-05-19T23:52:25.250Z,94.20
2023-05-19T23:54:52.001Z,94.30
2023-05-19T23:57:18.700Z,94.30
2023-05-19T23:59:45.720Z,94.80
